createdAt,value
2022-08-03T00:01:44.465Z,2.08
2022-08-03T00:04:12.452Z,2.40
2022-08-03T00:06:40.258Z,2.25
2022-08-03T00:09:08.346Z,1.30
2022-08-03T00:11:36.635Z,1.55
2022-08-03T00:14:06.992Z,2.28
2022-08-03T00:16:34.762Z,1.50
2022-08-03T00:19:03.194Z,1.55
2022-08-03T00:21:31.042Z,2.08
2022-08-03T00:23:58.622Z,1.70
2022-08-03T00:26:26.200Z,1.67
2022-08-03T00:28:54.116Z,1.55
2022-08-03T00:31:39.724Z,1.33
2022-08-03T00:34:10.130Z,1.45
2022-08-03T00:36:40.325Z,1.75
2022-08-03T00:39:07.939Z,2.03
2022-08-03T00:41:35.652Z,2.35
2022-08-03T00:44:03.297Z,1.92
2022-08-03T00:46:30.837Z,2.03
2022-08-03T00:48:58.630Z,2.13
2022-08-03T00:51:26.238Z,1.77
2022-08-03T00:53:53.815Z,1.50
2022-08-03T00:56:21.725Z,2.00
2022-08-03T00:58:49.590Z,1.42
2022-08-03T01:01:17.179Z,1.60
2022-08-03T01:03:45.533Z,1.75
2022-08-03T01:06:18.408Z,2.40
2022-08-03T01:09:14.619Z,1.77
2022-08-03T01:12:10.725Z,2.00
2022-08-03T01:14:51.944Z,1.88
2022-08-03T01:17:34.488Z,2.55
2022-08-03T01:20:10.671Z,3.35
2022-08-03T01:23:16.449Z,3.30
2022-08-03T01:26:11.405Z,3.95
2022-08-03T01:29:00.880Z,4.10
2022-08-03T01:33:00.249Z,4.50
2022-08-03T01:35:26.169Z,4.38
2022-08-03T01:38:05.970Z,3.95
2022-08-03T01:40:36.751Z,4.45
2022-08-03T01:43:07.017Z,3.95
2022-08-03T01:45:36.101Z,3.20
2022-08-03T01:48:05.173Z,3.75
2022-08-03T01:50:34.453Z,4.05
2022-08-03T01:53:03.557Z,3.72
2022-08-03T01:55:33.338Z,3.45
2022-08-03T01:58:06.295Z,3.40
2022-08-03T02:00:38.695Z,3.58
2022-08-03T02:03:08.693Z,2.58
2022-08-03T02:05:38.596Z,3.35
2022-08-03T02:08:09.054Z,3.85
2022-08-03T02:10:40.478Z,3.78
2022-08-03T02:13:10.329Z,4.53
2022-08-03T02:15:39.357Z,4.00
2022-08-03T02:18:10.748Z,3.15
2022-08-03T02:20:43.110Z,3.03
2022-08-03T02:23:11.022Z,2.92
2022-08-03T02:26:04.659Z,2.92
2022-08-03T02:28:40.137Z,3.53
2022-08-03T02:31:22.883Z,3.67
2022-08-03T02:33:54.669Z,3.00
2022-08-03T02:36:35.005Z,2.95
2022-08-03T02:39:05.163Z,2.83
2022-08-03T02:41:43.482Z,3.08
2022-08-03T02:44:13.857Z,3.17
2022-08-03T02:46:49.265Z,3.95
2022-08-03T02:49:40.995Z,3.85
2022-08-03T02:52:13.083Z,3.85
2022-08-03T02:54:41.811Z,3.92
2022-08-03T02:57:11.406Z,2.90
2022-08-03T02:59:40.254Z,2.88
2022-08-03T03:04:36.546Z,3.22
2022-08-03T03:07:04.548Z,3.30
2022-08-03T03:09:41.809Z,2.80
2022-08-03T03:12:13.609Z,3.17
2022-08-03T03:14:41.862Z,3.83
2022-08-03T03:17:11.469Z,3.50
2022-08-03T03:19:40.978Z,3.95
2022-08-03T03:22:09.347Z,3.17
2022-08-03T03:24:37.963Z,3.17
2022-08-03T03:27:05.988Z,2.78
2022-08-03T03:29:36.542Z,2.80
2022-08-03T03:32:09.161Z,2.78
2022-08-03T03:34:37.309Z,3.03
2022-08-03T03:37:05.327Z,3.28
2022-08-03T03:39:32.945Z,2.45
2022-08-03T03:42:01.157Z,2.85
2022-08-03T03:44:31.885Z,3.30
2022-08-03T03:46:59.533Z,2.38
2022-08-03T03:49:27.672Z,2.97
2022-08-03T03:51:55.863Z,2.88
2022-08-03T03:54:25.302Z,2.75
2022-08-03T03:56:53.376Z,3.10
2022-08-03T03:59:20.869Z,2.85
2022-08-03T04:01:48.781Z,2.42
2022-08-03T04:04:45.843Z,3.53
2022-08-03T04:07:31.749Z,3.00
2022-08-03T04:10:18.694Z,3.15
2022-08-03T04:12:50.312Z,2.92
2022-08-03T04:15:22.801Z,2.65
2022-08-03T04:17:53.862Z,3.30
2022-08-03T04:20:23.099Z,3.15
2022-08-03T04:25:21.055Z,2.70
2022-08-03T04:28:07.990Z,2.83
2022-08-03T04:30:47.591Z,2.80
2022-08-03T04:33:17.671Z,2.30
2022-08-03T04:36:01.741Z,2.63
2022-08-03T04:38:33.561Z,2.85
2022-08-03T04:41:01.969Z,2.83
2022-08-03T04:43:32.919Z,2.53
2022-08-03T04:46:02.677Z,2.50
2022-08-03T04:48:30.369Z,2.08
2022-08-03T04:50:58.056Z,3.10
2022-08-03T04:53:25.833Z,3.05
2022-08-03T04:55:53.325Z,3.55
2022-08-03T04:58:21.034Z,2.95
2022-08-03T05:00:51.362Z,2.63
2022-08-03T05:03:23.652Z,2.72
2022-08-03T05:06:01.715Z,2.88
2022-08-03T05:08:46.818Z,3.13
2022-08-03T05:11:16.869Z,2.80
2022-08-03T05:13:45.800Z,2.42
2022-08-03T05:18:43.158Z,4.55
2022-08-03T05:21:12.479Z,3.75
2022-08-03T05:23:40.500Z,6.05
2022-08-03T05:26:08.315Z,3.63
2022-08-03T05:28:35.776Z,3.75
2022-08-03T05:31:03.408Z,3.47
2022-08-03T05:33:31.536Z,3.65
2022-08-03T05:36:03.512Z,4.13
2022-08-03T05:38:34.979Z,3.75
2022-08-03T05:41:21.457Z,4.25
2022-08-03T05:46:23.198Z,4.30
2022-08-03T05:51:18.745Z,3.33
2022-08-03T05:53:46.449Z,3.67
2022-08-03T05:56:16.208Z,4.63
2022-08-03T05:58:46.887Z,3.80
2022-08-03T06:01:16.762Z,4.53
2022-08-03T06:03:46.095Z,3.97
2022-08-03T06:06:17.300Z,3.88
2022-08-03T06:08:46.193Z,5.45
2022-08-03T06:11:14.245Z,5.57
2022-08-03T06:13:41.999Z,5.22
2022-08-03T06:16:10.241Z,5.63
2022-08-03T06:18:40.529Z,5.78
2022-08-03T06:21:14.217Z,5.72
2022-08-03T06:23:54.257Z,5.45
2022-08-03T06:26:25.424Z,5.15
2022-08-03T06:28:54.518Z,5.65
2022-08-03T06:34:32.771Z,5.05
2022-08-03T06:36:41.126Z,5.35
2022-08-03T06:39:09.379Z,4.13
2022-08-03T06:41:38.137Z,3.90
2022-08-03T06:44:09.210Z,5.25
2022-08-03T06:46:38.216Z,4.38
2022-08-03T06:49:07.293Z,4.72
2022-08-03T06:52:04.357Z,5.07
2022-08-03T06:54:24.426Z,4.30
2022-08-03T06:56:52.063Z,5.20
2022-08-03T07:00:10.528Z,5.20
2022-08-03T07:02:09.779Z,5.60
2022-08-03T07:04:37.926Z,5.60
2022-08-03T07:07:05.436Z,5.53
2022-08-03T07:09:33.727Z,5.57
2022-08-03T07:12:02.413Z,6.43
2022-08-03T07:14:29.862Z,5.43
2022-08-03T07:16:58.887Z,6.25
2022-08-03T07:19:26.320Z,6.43
2022-08-03T07:21:53.801Z,6.97
2022-08-03T07:24:26.143Z,6.40
2022-08-03T07:26:56.017Z,8.45
2022-08-03T07:29:23.508Z,6.95
2022-08-03T07:31:51.229Z,9.18
2022-08-03T07:34:18.808Z,8.40
2022-08-03T07:36:46.442Z,9.35
2022-08-03T07:39:15.921Z,9.75
2022-08-03T07:41:46.310Z,8.70
2022-08-03T07:44:14.198Z,7.05
2022-08-03T07:46:42.024Z,7.40
2022-08-03T07:49:10.737Z,5.25
2022-08-03T07:51:38.276Z,5.88
2022-08-03T07:54:06.217Z,6.25
2022-08-03T07:56:34.878Z,5.00
2022-08-03T07:59:03.034Z,5.05
2022-08-03T08:01:32.859Z,5.05
2022-08-03T08:04:00.497Z,4.93
2022-08-03T08:06:27.960Z,4.38
2022-08-03T08:08:59.595Z,4.45
2022-08-03T08:11:27.125Z,3.70
2022-08-03T08:13:54.624Z,2.97
2022-08-03T08:16:22.401Z,2.95
2022-08-03T08:18:49.895Z,2.50
2022-08-03T08:21:17.535Z,2.47
2022-08-03T08:23:48.631Z,2.55
2022-08-03T08:26:27.844Z,2.17
2022-08-03T08:28:55.704Z,1.55
2022-08-03T08:31:23.141Z,2.78
2022-08-03T08:34:05.924Z,2.40
2022-08-03T08:36:35.401Z,2.45
2022-08-03T08:39:03.411Z,1.80
2022-08-03T08:41:33.884Z,1.77
2022-08-03T08:44:02.778Z,2.70
2022-08-03T08:46:34.125Z,2.78
2022-08-03T08:49:03.797Z,2.85
2022-08-03T08:51:54.465Z,3.58
2022-08-03T08:54:26.964Z,2.58
2022-08-03T08:56:59.379Z,2.50
2022-08-03T08:59:27.912Z,2.85
2022-08-03T09:04:45.600Z,2.33
2022-08-03T09:07:20.155Z,2.40
2022-08-03T09:10:12.495Z,2.63
2022-08-03T09:12:43.790Z,2.40
2022-08-03T09:15:31.284Z,2.30
2022-08-03T09:18:03.835Z,2.42
2022-08-03T09:20:35.110Z,1.83
2022-08-03T09:23:58.914Z,2.70
2022-08-03T09:26:01.796Z,2.03
2022-08-03T09:29:00.060Z,2.15
2022-08-03T09:31:37.826Z,2.13
2022-08-03T09:34:10.745Z,2.45
2022-08-03T09:36:46.911Z,2.67
2022-08-03T09:39:19.959Z,2.00
2022-08-03T09:42:14.922Z,2.13
2022-08-03T09:44:48.098Z,2.33
2022-08-03T09:47:37.566Z,2.25
2022-08-03T09:50:13.057Z,1.73
2022-08-03T09:52:52.133Z,1.80
2022-08-03T09:56:05.081Z,1.85
2022-08-03T09:58:10.532Z,2.42
2022-08-03T10:00:58.221Z,1.90
2022-08-03T10:03:29.269Z,1.40
2022-08-03T10:06:00.038Z,2.03
2022-08-03T10:08:28.393Z,1.63
2022-08-03T10:10:58.000Z,1.27
2022-08-03T10:13:25.494Z,1.88
2022-08-03T10:16:23.398Z,2.28
2022-08-03T10:18:40.799Z,2.40
2022-08-03T10:21:13.219Z,1.13
2022-08-03T10:23:41.992Z,1.90
2022-08-03T10:26:16.316Z,2.10
2022-08-03T10:28:53.974Z,1.65
2022-08-03T10:31:23.887Z,1.23
2022-08-03T10:33:56.335Z,1.55
2022-08-03T10:36:27.176Z,1.77
2022-08-03T10:38:57.267Z,1.75
2022-08-03T10:41:31.472Z,1.45
2022-08-03T10:44:18.402Z,1.58
2022-08-03T10:46:48.865Z,1.92
2022-08-03T10:49:34.711Z,1.00
2022-08-03T10:52:13.015Z,1.20
2022-08-03T10:55:07.520Z,0.77
2022-08-03T10:57:58.531Z,0.82
2022-08-03T11:00:30.106Z,0.93
2022-08-03T11:03:14.608Z,0.85
2022-08-03T11:05:49.146Z,0.68
2022-08-03T11:08:36.973Z,0.80
2022-08-03T11:11:19.795Z,1.27
2022-08-03T11:14:13.304Z,1.23
2022-08-03T11:16:45.227Z,0.90
2022-08-03T11:19:20.018Z,1.25
2022-08-03T11:21:51.394Z,0.63
2022-08-03T11:24:37.194Z,0.60
2022-08-03T11:27:19.811Z,0.75
2022-08-03T11:30:01.294Z,0.80
2022-08-03T11:32:38.253Z,0.73
2022-08-03T11:35:24.749Z,0.63
2022-08-03T11:38:04.530Z,0.50
2022-08-03T11:40:51.188Z,0.73
2022-08-03T11:43:31.773Z,0.50
2022-08-03T11:46:29.648Z,0.70
2022-08-03T11:49:10.485Z,0.93
2022-08-03T11:51:40.660Z,0.70
2022-08-03T11:54:08.765Z,0.70
2022-08-03T11:56:50.404Z,0.55
2022-08-03T11:59:22.170Z,0.60
2022-08-03T12:01:51.008Z,0.63
2022-08-03T12:04:18.987Z,0.60
2022-08-03T12:07:01.833Z,0.50
2022-08-03T12:09:29.658Z,0.60
2022-08-03T12:12:00.523Z,1.05
2022-08-03T12:14:48.455Z,0.90
2022-08-03T12:17:18.714Z,0.65
2022-08-03T12:19:46.559Z,0.50
2022-08-03T12:22:15.874Z,0.57
2022-08-03T12:24:46.915Z,0.63
2022-08-03T12:27:25.382Z,0.70
2022-08-03T12:32:29.615Z,0.30
2022-08-03T12:35:04.529Z,0.55
2022-08-03T12:37:32.520Z,0.68
2022-08-03T12:40:10.091Z,0.70
2022-08-03T12:42:40.056Z,0.77
2022-08-03T12:45:32.592Z,0.40
2022-08-03T12:48:10.193Z,0.60
2022-08-03T12:50:39.820Z,0.88
2022-08-03T12:53:09.788Z,0.68
2022-08-03T12:55:57.154Z,0.77
2022-08-03T12:58:34.122Z,0.50
2022-08-03T13:01:09.900Z,0.50
2022-08-03T13:03:50.415Z,0.47
2022-08-03T13:06:25.639Z,0.47
2022-08-03T13:09:10.224Z,0.75
2022-08-03T13:11:57.332Z,0.40
2022-08-03T13:16:53.823Z,0.50
2022-08-03T13:19:21.375Z,0.52
2022-08-03T13:22:02.140Z,0.30
2022-08-03T13:24:33.155Z,0.40
2022-08-03T13:27:22.096Z,0.30
2022-08-03T13:29:50.988Z,0.40
2022-08-03T13:34:46.854Z,0.43
2022-08-03T13:37:14.843Z,0.38
2022-08-03T13:39:57.225Z,0.40
2022-08-03T13:42:29.831Z,0.70
2022-08-03T13:44:58.014Z,0.55
2022-08-03T13:47:26.035Z,0.60
2022-08-03T13:50:01.031Z,0.43
2022-08-03T13:52:35.071Z,0.50
2022-08-03T13:55:06.473Z,0.50
2022-08-03T13:58:03.796Z,0.40
2022-08-03T14:00:28.913Z,0.40
2022-08-03T14:03:06.726Z,0.60
2022-08-03T14:05:38.793Z,0.40
2022-08-03T14:08:08.090Z,0.60
2022-08-03T14:10:42.982Z,0.40
2022-08-03T14:13:16.851Z,0.45
2022-08-03T14:15:50.038Z,0.70
2022-08-03T14:18:28.535Z,0.47
2022-08-03T14:21:06.921Z,0.73
2022-08-03T14:23:37.811Z,0.38
2022-08-03T14:26:07.877Z,0.40
2022-08-03T14:28:36.577Z,0.52
2022-08-03T14:33:36.367Z,0.70
2022-08-03T14:36:04.970Z,0.47
2022-08-03T14:38:32.704Z,0.52
2022-08-03T14:41:00.249Z,0.60
2022-08-03T14:43:33.820Z,0.55
2022-08-03T14:46:01.896Z,0.30
2022-08-03T14:50:29.670Z,0.50
2022-08-03T14:51:17.361Z,0.40
2022-08-03T14:53:46.278Z,0.35
2022-08-03T14:56:13.793Z,0.50
2022-08-03T14:58:41.376Z,0.40
2022-08-03T15:02:02.651Z,0.45
2022-08-03T15:03:56.810Z,0.47
2022-08-03T15:06:24.675Z,0.38
2022-08-03T15:09:13.861Z,0.40
2022-08-03T15:11:40.449Z,0.32
2022-08-03T15:14:09.594Z,0.65
2022-08-03T15:16:38.898Z,0.28
2022-08-03T15:20:04.061Z,0.50
2022-08-03T15:21:56.114Z,0.40
2022-08-03T15:24:23.879Z,0.52
2022-08-03T15:26:52.771Z,0.47
2022-08-03T15:30:05.573Z,0.95
2022-08-03T15:34:37.298Z,0.50
2022-08-03T15:37:12.749Z,1.00
2022-08-03T15:39:59.558Z,0.68
2022-08-03T15:42:30.234Z,1.55
2022-08-03T15:44:58.591Z,0.65
2022-08-03T15:47:26.553Z,0.75
2022-08-03T15:49:54.153Z,0.57
2022-08-03T15:52:21.996Z,0.40
2022-08-03T15:54:49.562Z,0.40
2022-08-03T15:57:17.274Z,1.05
2022-08-03T15:59:45.121Z,0.60
2022-08-03T16:02:12.678Z,0.63
2022-08-03T16:04:40.258Z,0.80
2022-08-03T16:07:08.828Z,0.73
2022-08-03T16:09:42.069Z,0.93
2022-08-03T16:12:16.277Z,0.55
2022-08-03T16:14:52.852Z,0.60
2022-08-03T16:17:22.603Z,0.80
2022-08-03T16:19:54.855Z,0.40
2022-08-03T16:22:26.747Z,0.70
2022-08-03T16:24:56.041Z,0.60
2022-08-03T16:27:36.939Z,0.68
2022-08-03T16:30:08.370Z,0.80
2022-08-03T16:32:38.328Z,0.70
2022-08-03T16:35:06.576Z,0.70
2022-08-03T16:40:17.390Z,0.80
2022-08-03T16:42:47.760Z,0.47
2022-08-03T16:45:15.629Z,0.70
2022-08-03T16:47:43.206Z,1.00
2022-08-03T16:50:17.200Z,0.80
2022-08-03T16:52:48.640Z,0.70
2022-08-03T16:55:42.746Z,0.88
2022-08-03T16:58:06.105Z,1.08
2022-08-03T17:00:41.673Z,0.88
2022-08-03T17:03:16.378Z,1.30
2022-08-03T17:05:50.022Z,1.15
2022-08-03T17:08:26.141Z,0.57
2022-08-03T17:10:56.321Z,0.73
2022-08-03T17:13:27.679Z,0.75
2022-08-03T17:16:10.508Z,1.35
2022-08-03T17:19:01.957Z,0.77
2022-08-03T17:21:33.201Z,1.15
2022-08-03T17:24:28.141Z,1.13
2022-08-03T17:26:57.303Z,0.90
2022-08-03T17:29:29.933Z,1.30
2022-08-03T17:31:57.664Z,1.73
2022-08-03T17:34:26.256Z,1.23
2022-08-03T17:37:04.172Z,2.00
2022-08-03T17:39:57.602Z,1.60
2022-08-03T17:42:30.404Z,1.45
2022-08-03T17:45:01.947Z,1.63
2022-08-03T17:47:41.345Z,2.00
2022-08-03T17:50:24.832Z,2.08
2022-08-03T17:53:15.410Z,1.95
2022-08-03T17:56:44.414Z,1.13
2022-08-03T17:59:51.828Z,1.50
2022-08-03T18:03:04.494Z,1.30
2022-08-03T18:06:10.540Z,1.63
2022-08-03T18:08:38.109Z,1.50
2022-08-03T18:11:14.489Z,1.48
2022-08-03T18:14:05.808Z,1.38
2022-08-03T18:17:10.241Z,1.70
2022-08-03T18:20:02.692Z,1.48
2022-08-03T18:22:28.208Z,1.30
2022-08-03T18:25:00.316Z,1.95
2022-08-03T18:27:45.492Z,1.48
2022-08-03T18:30:15.514Z,2.50
2022-08-03T18:33:01.107Z,2.67
2022-08-03T18:35:52.938Z,2.63
2022-08-03T18:38:25.354Z,3.33
2022-08-03T18:40:52.971Z,3.78
2022-08-03T18:43:22.454Z,4.35
2022-08-03T18:46:51.796Z,3.60
2022-08-03T18:49:45.002Z,4.53
2022-08-03T18:52:37.368Z,3.70
2022-08-03T18:55:32.897Z,3.75
2022-08-03T18:58:17.747Z,2.95
2022-08-03T19:01:57.845Z,2.90
2022-08-03T19:04:53.507Z,3.13
2022-08-03T19:07:27.701Z,2.35
2022-08-03T19:10:10.350Z,2.00
2022-08-03T19:12:53.021Z,1.92
2022-08-03T19:15:36.485Z,2.00
2022-08-03T19:18:11.264Z,1.83
2022-08-03T19:20:40.181Z,2.08
2022-08-03T19:23:08.318Z,1.80
2022-08-03T19:25:40.629Z,2.25
2022-08-03T19:28:09.618Z,1.45
2022-08-03T19:30:40.620Z,1.80
2022-08-03T19:33:15.766Z,1.92
2022-08-03T19:35:55.104Z,1.83
2022-08-03T19:38:29.114Z,1.67
2022-08-03T19:41:17.699Z,1.95
2022-08-03T19:44:04.414Z,1.58
2022-08-03T19:46:57.798Z,2.35
2022-08-03T19:50:05.676Z,1.88
2022-08-03T19:52:24.567Z,2.03
2022-08-03T19:55:03.759Z,2.20
2022-08-03T19:57:34.373Z,2.45
2022-08-03T20:00:07.922Z,3.20
2022-08-03T20:02:35.806Z,3.92
2022-08-03T20:05:03.762Z,5.97
2022-08-03T20:07:32.913Z,3.78
2022-08-03T20:10:04.665Z,3.17
2022-08-03T20:12:39.260Z,2.38
2022-08-03T20:15:07.934Z,3.75
2022-08-03T20:17:56.749Z,3.30
2022-08-03T20:23:16.193Z,1.90
2022-08-03T20:25:58.411Z,2.55
2022-08-03T20:28:50.540Z,2.67
2022-08-03T20:31:32.225Z,2.80
2022-08-03T20:34:05.468Z,2.88
2022-08-03T20:36:33.287Z,2.90
2022-08-03T20:39:00.932Z,2.35
2022-08-03T20:41:30.573Z,2.90
2022-08-03T20:43:59.233Z,2.47
2022-08-03T20:46:30.929Z,2.38
2022-08-03T20:49:05.790Z,1.52
2022-08-03T20:51:49.242Z,2.20
2022-08-03T20:54:30.627Z,1.70
2022-08-03T20:57:03.903Z,1.88
2022-08-03T20:59:50.534Z,2.00
2022-08-03T21:02:29.960Z,2.00
2022-08-03T21:05:08.430Z,2.08
2022-08-03T21:08:05.519Z,2.15
2022-08-03T21:10:38.647Z,1.70
2022-08-03T21:13:30.307Z,1.60
2022-08-03T21:16:07.121Z,1.50
2022-08-03T21:18:51.409Z,1.23
2022-08-03T21:21:22.466Z,2.13
2022-08-03T21:23:55.138Z,2.05
2022-08-03T21:26:26.769Z,1.67
2022-08-03T21:28:56.695Z,1.52
2022-08-03T21:31:26.799Z,1.48
2022-08-03T21:34:01.233Z,1.42
2022-08-03T21:36:32.424Z,1.38
2022-08-03T21:39:01.637Z,2.10
2022-08-03T21:41:32.364Z,1.88
2022-08-03T21:44:01.523Z,2.30
2022-08-03T21:50:06.721Z,2.40
2022-08-03T21:51:59.682Z,2.70
2022-08-03T21:54:41.324Z,2.75
2022-08-03T21:57:22.922Z,2.92
2022-08-03T22:00:15.477Z,3.88
2022-08-03T22:02:54.547Z,3.75
2022-08-03T22:05:42.459Z,3.70
2022-08-03T22:08:13.388Z,4.30
2022-08-03T22:10:44.401Z,4.05
2022-08-03T22:13:43.141Z,4.22
2022-08-03T22:16:06.528Z,4.03
2022-08-03T22:18:42.102Z,3.78
2022-08-03T22:21:11.837Z,4.60
2022-08-03T22:23:44.811Z,4.13
2022-08-03T22:26:32.382Z,3.42
2022-08-03T22:29:08.132Z,3.45
2022-08-03T22:31:58.460Z,3.15
2022-08-03T22:34:27.199Z,2.83
2022-08-03T22:37:01.499Z,3.10
2022-08-03T22:39:30.119Z,3.10
2022-08-03T22:41:59.059Z,3.38
2022-08-03T22:44:28.003Z,2.67
2022-08-03T22:49:27.013Z,3.28
2022-08-03T22:51:56.154Z,2.95
2022-08-03T22:54:24.026Z,3.45
2022-08-03T22:56:52.683Z,3.15
2022-08-03T22:59:39.968Z,2.85
2022-08-03T23:02:20.245Z,3.72
2022-08-03T23:05:01.478Z,3.38
2022-08-03T23:07:38.793Z,3.72
2022-08-03T23:10:11.622Z,3.40
2022-08-03T23:12:41.969Z,3.25
2022-08-03T23:15:13.139Z,3.20
2022-08-03T23:18:03.417Z,2.65
2022-08-03T23:20:31.169Z,2.75
2022-08-03T23:22:59.315Z,2.27
2022-08-03T23:25:27.309Z,2.70
2022-08-03T23:28:05.674Z,2.80
2022-08-03T23:30:37.713Z,2.72
2022-08-03T23:33:06.708Z,2.50
2022-08-03T23:38:40.890Z,2.30
2022-08-03T23:41:09.290Z,2.10
2022-08-03T23:43:53.817Z,2.08
2022-08-03T23:46:22.678Z,2.45
2022-08-03T23:48:51.389Z,2.60
2022-08-03T23:51:53.291Z,2.17
2022-08-03T23:55:07.813Z,2.03
2022-08-03T23:58:22.026Z,2.38
